createdAt,value
2022-12-08T00:00:33.269Z,32.67
2022-12-08T00:02:36.417Z,30.20
2022-12-08T00:04:59.579Z,22.73
2022-12-08T00:07:19.999Z,27.08
2022-12-08T00:09:23.701Z,24.38
2022-12-08T00:11:26.689Z,25.25
2022-12-08T00:13:29.690Z,25.50
2022-12-08T00:15:34.099Z,25.38
2022-12-08T00:17:37.116Z,23.42
2022-12-08T00:19:41.097Z,28.40
2022-12-08T00:21:44.175Z,32.15
2022-12-08T00:23:47.275Z,35.90
2022-12-08T00:25:50.334Z,32.38
2022-12-08T00:27:53.495Z,40.92
2022-12-08T00:29:56.460Z,40.60
2022-12-08T00:32:00.972Z,41.65
2022-12-08T00:34:04.140Z,31.00
2022-12-08T00:36:08.058Z,28.63
2022-12-08T00:38:11.031Z,28.65
2022-12-08T00:40:14.176Z,32.97
2022-12-08T00:42:17.510Z,29.33
2022-12-08T00:44:20.772Z,27.08
2022-12-08T00:46:23.783Z,28.75
2022-12-08T00:48:28.211Z,29.08
2022-12-08T00:50:32.645Z,22.90
2022-12-08T00:52:35.615Z,26.00
2022-12-08T00:54:38.805Z,24.63
2022-12-08T00:56:41.849Z,28.65
2022-12-08T00:58:44.889Z,25.20
2022-12-08T01:00:47.889Z,24.50
2022-12-08T01:02:51.015Z,24.92
2022-12-08T01:04:55.526Z,27.00
2022-12-08T01:06:58.540Z,27.58
2022-12-08T01:09:02.496Z,27.00
2022-12-08T01:11:06.051Z,31.02
2022-12-08T01:13:09.124Z,28.98
2022-12-08T01:15:12.484Z,27.38
2022-12-08T01:17:15.476Z,26.42
2022-12-08T01:19:18.710Z,27.08
2022-12-08T01:21:23.121Z,27.05
2022-12-08T01:23:26.127Z,27.80
2022-12-08T01:25:29.119Z,29.02
2022-12-08T01:27:32.163Z,29.48
2022-12-08T01:29:35.557Z,28.38
2022-12-08T01:31:38.722Z,25.20
2022-12-08T01:33:42.104Z,25.55
2022-12-08T01:35:45.267Z,28.33
2022-12-08T01:37:51.440Z,25.23
2022-12-08T01:39:54.431Z,27.77
2022-12-08T01:41:57.392Z,25.48
2022-12-08T01:44:02.205Z,30.65
2022-12-08T01:46:05.557Z,26.33
2022-12-08T01:48:12.399Z,25.23
2022-12-08T01:50:17.273Z,25.52
2022-12-08T01:52:25.037Z,26.67
2022-12-08T01:54:31.833Z,26.55
2022-12-08T01:56:39.746Z,23.45
2022-12-08T01:58:46.449Z,23.85
2022-12-08T02:00:50.233Z,21.85
2022-12-08T02:02:56.578Z,26.45
2022-12-08T02:04:59.751Z,22.05
2022-12-08T02:07:07.948Z,24.65
2022-12-08T02:09:12.014Z,25.88
2022-12-08T02:11:17.227Z,24.60
2022-12-08T02:13:21.568Z,22.85
2022-12-08T02:15:32.637Z,24.60
2022-12-08T02:17:50.676Z,23.48
2022-12-08T02:20:21.319Z,20.95
2022-12-08T02:22:29.463Z,24.30
2022-12-08T02:24:38.420Z,20.40
2022-12-08T02:27:09.520Z,23.35
2022-12-08T02:29:36.302Z,20.88
2022-12-08T02:31:52.115Z,21.83
2022-12-08T02:34:06.428Z,22.45
2022-12-08T02:36:15.820Z,27.60
2022-12-08T02:38:22.868Z,22.08
2022-12-08T02:40:29.969Z,21.10
2022-12-08T02:42:36.588Z,20.80
2022-12-08T02:44:42.933Z,23.95
2022-12-08T02:46:57.286Z,24.13
2022-12-08T02:49:02.150Z,18.85
2022-12-08T02:51:06.782Z,22.10
2022-12-08T02:55:19.694Z,19.85
2022-12-08T02:57:33.171Z,19.92
2022-12-08T02:59:49.027Z,21.95
2022-12-08T03:02:11.404Z,24.27
2022-12-08T03:04:23.830Z,20.90
2022-12-08T03:06:29.960Z,26.85
2022-12-08T03:08:36.418Z,23.55
2022-12-08T03:10:43.341Z,32.80
2022-12-08T03:12:50.657Z,21.65
2022-12-08T03:14:55.323Z,24.00
2022-12-08T03:16:59.020Z,20.83
2022-12-08T03:19:04.676Z,22.40
2022-12-08T03:21:10.454Z,21.25
2022-12-08T03:23:15.372Z,20.40
2022-12-08T03:25:22.202Z,21.48
2022-12-08T03:27:27.520Z,17.45
2022-12-08T03:29:30.795Z,20.70
2022-12-08T03:31:35.751Z,21.92
2022-12-08T03:33:40.755Z,19.38
2022-12-08T03:35:44.340Z,18.80
2022-12-08T03:37:48.881Z,21.85
2022-12-08T03:39:51.849Z,21.17
2022-12-08T03:41:54.906Z,20.67
2022-12-08T03:43:59.421Z,19.55
2022-12-08T03:46:02.581Z,21.52
2022-12-08T03:48:05.826Z,22.08
2022-12-08T03:50:09.758Z,22.95
2022-12-08T03:52:12.802Z,20.45
2022-12-08T03:54:17.128Z,21.63
2022-12-08T03:56:24.350Z,24.55
2022-12-08T03:58:28.471Z,19.77
2022-12-08T04:00:33.838Z,20.92
2022-12-08T04:02:36.898Z,20.75
2022-12-08T04:04:39.990Z,19.67
2022-12-08T04:06:43.085Z,22.38
2022-12-08T04:08:46.188Z,20.55
2022-12-08T04:10:50.586Z,18.05
2022-12-08T04:12:53.580Z,22.88
2022-12-08T04:14:56.515Z,22.23
2022-12-08T04:16:59.504Z,18.02
2022-12-08T04:19:02.625Z,23.40
2022-12-08T04:21:05.806Z,20.00
2022-12-08T04:23:12.002Z,18.63
2022-12-08T04:25:15.488Z,19.42
2022-12-08T04:27:19.821Z,22.50
2022-12-08T04:29:22.798Z,15.25
2022-12-08T04:31:25.802Z,17.48
2022-12-08T04:33:28.976Z,16.10
2022-12-08T04:35:32.507Z,14.93
2022-12-08T04:37:35.498Z,17.85
2022-12-08T04:39:38.469Z,16.02
2022-12-08T04:41:41.447Z,16.92
2022-12-08T04:43:45.735Z,21.95
2022-12-08T04:45:48.725Z,17.42
2022-12-08T04:47:51.785Z,13.80
2022-12-08T04:49:54.783Z,16.38
2022-12-08T04:51:57.753Z,13.38
2022-12-08T04:54:00.788Z,11.93
2022-12-08T04:56:03.929Z,14.80
2022-12-08T04:58:07.041Z,12.20
2022-12-08T05:00:14.699Z,13.45
2022-12-08T05:02:17.787Z,15.93
2022-12-08T05:04:20.880Z,11.60
2022-12-08T05:06:24.628Z,13.68
2022-12-08T05:08:27.699Z,12.77
2022-12-08T05:10:30.690Z,11.93
2022-12-08T05:12:33.649Z,13.18
2022-12-08T05:14:36.763Z,11.75
2022-12-08T05:16:41.240Z,11.30
2022-12-08T05:18:44.512Z,9.48
2022-12-08T05:20:47.845Z,10.05
2022-12-08T05:22:50.875Z,13.18
2022-12-08T05:24:53.804Z,14.10
2022-12-08T05:26:56.741Z,16.20
2022-12-08T05:28:59.688Z,16.08
2022-12-08T05:31:02.795Z,28.48
2022-12-08T05:33:07.195Z,31.60
2022-12-08T05:35:10.689Z,19.63
2022-12-08T05:37:13.719Z,40.78
2022-12-08T05:39:16.967Z,43.08
2022-12-08T05:41:21.622Z,26.55
2022-12-08T05:43:24.808Z,33.67
2022-12-08T05:45:28.057Z,30.65
2022-12-08T05:47:35.890Z,47.95
2022-12-08T05:49:40.664Z,31.65
2022-12-08T05:51:43.867Z,32.08
2022-12-08T05:53:47.642Z,42.97
2022-12-08T05:55:50.631Z,34.58
2022-12-08T05:57:57.364Z,28.73
2022-12-08T06:00:00.711Z,51.38
2022-12-08T06:02:04.130Z,39.67
2022-12-08T06:04:07.423Z,34.72
2022-12-08T06:06:11.813Z,23.48
2022-12-08T06:08:14.962Z,33.60
2022-12-08T06:10:18.303Z,44.33
2022-12-08T06:12:21.833Z,30.08
2022-12-08T06:14:24.823Z,19.15
2022-12-08T06:16:28.981Z,29.13
2022-12-08T06:18:33.026Z,33.35
2022-12-08T06:20:36.185Z,26.42
2022-12-08T06:22:40.624Z,31.02
2022-12-08T06:24:43.726Z,35.95
2022-12-08T06:26:46.954Z,46.38
2022-12-08T06:28:50.399Z,31.15
2022-12-08T06:30:53.402Z,41.22
2022-12-08T06:32:56.486Z,43.72
2022-12-08T06:34:59.449Z,41.08
2022-12-08T06:37:02.460Z,44.65
2022-12-08T06:39:06.969Z,57.08
2022-12-08T06:41:10.029Z,48.67
2022-12-08T06:43:12.040Z,61.20
2022-12-08T06:45:16.746Z,61.75
2022-12-08T06:47:24.647Z,74.82
2022-12-08T06:49:29.076Z,30.45
2022-12-08T06:51:33.736Z,34.95
2022-12-08T06:53:36.894Z,30.88
2022-12-08T06:56:01.322Z,32.90
2022-12-08T06:58:04.343Z,27.30
2022-12-08T07:00:08.658Z,25.25
2022-12-08T07:02:12.399Z,27.00
2022-12-08T07:04:15.481Z,16.77
2022-12-08T07:06:21.780Z,17.75
2022-12-08T07:08:25.009Z,21.70
2022-12-08T07:10:28.202Z,26.17
2022-12-08T07:12:32.541Z,23.15
2022-12-08T07:14:35.607Z,18.25
2022-12-08T07:16:39.325Z,21.00
2022-12-08T07:18:42.963Z,19.65
2022-12-08T07:20:46.056Z,22.50
2022-12-08T07:22:50.142Z,18.95
2022-12-08T07:24:53.142Z,20.77
2022-12-08T07:26:56.111Z,27.55
2022-12-08T07:29:01.337Z,23.58
2022-12-08T07:31:06.003Z,17.45
2022-12-08T07:33:09.184Z,18.35
2022-12-08T07:35:12.554Z,18.40
2022-12-08T07:37:15.591Z,14.93
2022-12-08T07:39:18.571Z,19.33
2022-12-08T07:41:23.690Z,20.23
2022-12-08T07:43:27.234Z,19.95
2022-12-08T07:45:32.019Z,18.27
2022-12-08T07:47:35.119Z,20.98
2022-12-08T07:49:38.115Z,13.52
2022-12-08T07:51:42.216Z,14.90
2022-12-08T07:53:53.206Z,18.58
2022-12-08T07:55:56.763Z,17.80
2022-12-08T07:57:59.752Z,16.80
2022-12-08T08:00:03.804Z,14.93
2022-12-08T08:02:26.962Z,20.48
2022-12-08T08:04:30.154Z,19.67
2022-12-08T08:06:34.512Z,23.88
2022-12-08T08:08:37.504Z,17.67
2022-12-08T08:10:40.538Z,18.40
2022-12-08T08:12:43.611Z,19.45
2022-12-08T08:14:46.687Z,19.05
2022-12-08T08:16:49.858Z,22.15
2022-12-08T08:18:54.664Z,21.13
2022-12-08T08:20:58.135Z,24.55
2022-12-08T08:23:01.303Z,22.10
2022-12-08T08:25:04.817Z,16.52
2022-12-08T08:27:07.924Z,18.38
2022-12-08T08:29:11.050Z,20.02
2022-12-08T08:31:14.170Z,21.63
2022-12-08T08:33:17.295Z,22.23
2022-12-08T08:35:21.593Z,23.92
2022-12-08T08:37:24.666Z,20.38
2022-12-08T08:39:30.355Z,20.35
2022-12-08T08:41:33.428Z,20.45
2022-12-08T08:43:38.552Z,19.95
2022-12-08T08:45:42.396Z,17.38
2022-12-08T08:47:45.403Z,19.50
2022-12-08T08:49:48.661Z,18.85
2022-12-08T08:51:53.156Z,16.95
2022-12-08T08:53:56.204Z,18.98
2022-12-08T08:56:02.444Z,19.00
2022-12-08T08:58:05.722Z,21.20
2022-12-08T09:00:10.773Z,25.10
2022-12-08T09:02:17.251Z,28.45
2022-12-08T09:04:20.963Z,23.42
2022-12-08T09:06:24.820Z,25.48
2022-12-08T09:08:29.365Z,27.27
2022-12-08T09:10:32.633Z,24.90
2022-12-08T09:12:35.657Z,28.20
2022-12-08T09:14:38.798Z,25.88
2022-12-08T09:16:42.567Z,26.50
2022-12-08T09:18:45.836Z,23.50
2022-12-08T09:20:48.948Z,19.88
2022-12-08T09:22:52.169Z,20.95
2022-12-08T09:24:56.593Z,21.25
2022-12-08T09:26:59.621Z,26.30
2022-12-08T09:29:02.777Z,30.35
2022-12-08T09:31:06.124Z,26.08
2022-12-08T09:33:10.226Z,25.88
2022-12-08T09:35:13.444Z,17.92
2022-12-08T09:37:16.709Z,21.20
2022-12-08T09:39:19.740Z,23.65
2022-12-08T09:41:40.288Z,17.70
2022-12-08T09:43:54.099Z,27.27
2022-12-08T09:45:57.310Z,23.58
2022-12-08T09:48:04.431Z,21.60
2022-12-08T09:50:14.078Z,23.95
2022-12-08T09:52:21.832Z,19.23
2022-12-08T09:54:30.735Z,24.08
2022-12-08T09:56:37.691Z,25.33
2022-12-08T09:58:47.654Z,16.25
2022-12-08T10:00:50.713Z,17.30
2022-12-08T10:02:53.879Z,17.38
2022-12-08T10:04:58.027Z,31.95
2022-12-08T10:07:05.844Z,14.43
2022-12-08T10:09:22.671Z,15.90
2022-12-08T10:11:31.121Z,12.73
2022-12-08T10:13:39.964Z,10.25
2022-12-08T10:15:47.264Z,11.63
2022-12-08T10:17:52.045Z,10.15
2022-12-08T10:19:58.985Z,10.55
2022-12-08T10:22:02.581Z,10.80
2022-12-08T10:24:13.032Z,9.18
2022-12-08T10:26:18.386Z,13.25
2022-12-08T10:28:21.364Z,12.63
2022-12-08T10:30:25.803Z,10.20
2022-12-08T10:32:35.078Z,10.60
2022-12-08T10:35:05.852Z,9.88
2022-12-08T10:37:10.832Z,11.40
2022-12-08T10:39:32.432Z,9.98
2022-12-08T10:41:35.678Z,11.25
2022-12-08T10:43:43.921Z,10.07
2022-12-08T10:45:48.538Z,6.95
2022-12-08T10:47:59.400Z,7.60
2022-12-08T10:50:21.110Z,11.45
2022-12-08T10:52:24.404Z,10.15
2022-12-08T10:54:29.654Z,17.70
2022-12-08T10:56:33.241Z,9.98
2022-12-08T10:58:40.476Z,14.18
2022-12-08T11:00:43.565Z,10.40
2022-12-08T11:03:02.064Z,11.55
2022-12-08T11:05:05.354Z,9.77
2022-12-08T11:07:10.992Z,9.52
2022-12-08T11:09:37.832Z,7.38
2022-12-08T11:11:45.898Z,9.40
2022-12-08T11:13:49.967Z,10.60
2022-12-08T11:15:53.995Z,11.20
2022-12-08T11:18:04.096Z,8.90
2022-12-08T11:20:21.738Z,8.60
2022-12-08T11:22:27.403Z,9.73
2022-12-08T11:24:34.690Z,36.15
2022-12-08T11:26:40.499Z,11.68
2022-12-08T11:28:43.574Z,8.60
2022-12-08T11:30:49.133Z,7.95
2022-12-08T11:32:54.759Z,9.00
2022-12-08T11:35:02.660Z,15.55
2022-12-08T11:37:06.784Z,9.30
2022-12-08T11:39:11.598Z,8.93
2022-12-08T11:41:17.638Z,10.35
2022-12-08T11:43:24.259Z,9.25
2022-12-08T11:45:30.859Z,7.65
2022-12-08T11:47:37.747Z,8.65
2022-12-08T11:49:42.461Z,9.10
2022-12-08T11:51:49.646Z,11.80
2022-12-08T11:54:06.363Z,9.43
2022-12-08T11:56:16.454Z,9.00
2022-12-08T11:58:21.609Z,8.23
2022-12-08T12:00:25.119Z,9.23
2022-12-08T12:02:30.040Z,9.95
2022-12-08T12:04:34.829Z,8.55
2022-12-08T12:07:09.046Z,8.85
2022-12-08T12:09:16.591Z,7.13
2022-12-08T12:11:39.944Z,8.43
2022-12-08T12:14:00.722Z,10.40
2022-12-08T12:16:31.553Z,9.32
2022-12-08T12:18:40.323Z,8.90
2022-12-08T12:20:49.209Z,7.10
2022-12-08T12:22:57.940Z,7.80
2022-12-08T12:25:01.247Z,7.80
2022-12-08T12:27:09.142Z,8.88
2022-12-08T12:29:17.419Z,8.55
2022-12-08T12:31:24.586Z,12.95
2022-12-08T12:33:28.864Z,9.57
2022-12-08T12:35:34.874Z,13.10
2022-12-08T12:37:40.619Z,6.88
2022-12-08T12:39:51.688Z,7.13
2022-12-08T12:41:57.520Z,6.18
2022-12-08T12:44:40.735Z,7.60
2022-12-08T12:46:55.568Z,6.97
2022-12-08T12:49:45.785Z,11.30
2022-12-08T12:51:55.300Z,7.20
2022-12-08T12:54:21.772Z,6.78
2022-12-08T12:56:51.899Z,6.13
2022-12-08T12:58:55.353Z,7.18
2022-12-08T13:01:31.666Z,8.27
2022-12-08T13:03:36.015Z,8.35
2022-12-08T13:05:49.782Z,5.97
2022-12-08T13:07:55.249Z,10.18
2022-12-08T13:10:01.631Z,6.75
2022-12-08T13:12:11.528Z,7.95
2022-12-08T13:14:28.384Z,6.32
2022-12-08T13:16:34.350Z,7.63
2022-12-08T13:18:39.168Z,6.47
2022-12-08T13:20:44.249Z,7.82
2022-12-08T13:23:05.177Z,8.18
2022-12-08T13:25:47.648Z,7.43
2022-12-08T13:27:55.253Z,7.40
2022-12-08T13:30:31.599Z,5.35
2022-12-08T13:33:17.239Z,6.40
2022-12-08T13:35:19.181Z,5.97
2022-12-08T13:37:27.269Z,7.43
2022-12-08T13:39:35.107Z,7.15
2022-12-08T13:41:40.197Z,7.00
2022-12-08T13:44:20.064Z,7.10
2022-12-08T13:47:02.841Z,8.90
2022-12-08T13:50:15.613Z,7.35
2022-12-08T13:58:28.056Z,6.68
2022-12-08T14:00:32.837Z,7.05
2022-12-08T14:02:40.823Z,7.28
2022-12-08T14:07:13.021Z,7.22
2022-12-08T14:09:18.420Z,7.15
2022-12-08T14:11:34.465Z,7.50
2022-12-08T14:13:37.586Z,7.00
2022-12-08T14:15:42.091Z,7.65
2022-12-08T14:17:51.869Z,10.60
2022-12-08T14:19:56.860Z,7.43
2022-12-08T14:22:01.534Z,8.73
2022-12-08T14:24:04.913Z,8.80
2022-12-08T14:26:08.178Z,9.38
2022-12-08T14:28:11.816Z,7.35
2022-12-08T14:30:21.228Z,10.50
2022-12-08T14:32:31.363Z,6.63
2022-12-08T14:34:40.552Z,8.73
2022-12-08T14:36:43.771Z,8.07
2022-12-08T14:38:46.944Z,6.20
2022-12-08T14:40:51.737Z,9.18
2022-12-08T14:43:05.255Z,6.93
2022-12-08T14:45:12.706Z,8.40
2022-12-08T14:47:20.947Z,8.45
2022-12-08T14:49:34.856Z,8.32
2022-12-08T14:51:38.007Z,9.57
2022-12-08T14:53:42.845Z,11.90
2022-12-08T14:55:47.559Z,9.45
2022-12-08T14:57:50.554Z,9.60
2022-12-08T14:59:53.682Z,7.72
2022-12-08T15:02:13.881Z,9.35
2022-12-08T15:04:20.900Z,9.27
2022-12-08T15:06:25.786Z,8.43
2022-12-08T15:08:29.931Z,7.78
2022-12-08T15:10:38.135Z,7.47
2022-12-08T15:12:41.493Z,8.32
2022-12-08T15:14:56.559Z,9.45
2022-12-08T15:16:59.707Z,8.80
2022-12-08T15:19:08.808Z,8.02
2022-12-08T15:21:14.934Z,9.38
2022-12-08T15:23:30.737Z,8.82
2022-12-08T15:25:35.043Z,7.07
2022-12-08T15:27:48.335Z,8.55
2022-12-08T15:29:53.898Z,8.35
2022-12-08T15:31:58.740Z,8.75
2022-12-08T15:34:02.287Z,8.02
2022-12-08T15:36:05.813Z,9.02
2022-12-08T15:38:18.229Z,8.95
2022-12-08T15:40:26.039Z,8.45
2022-12-08T15:42:29.169Z,7.70
2022-12-08T15:44:33.005Z,8.38
2022-12-08T15:46:36.261Z,8.35
2022-12-08T15:48:39.530Z,8.18
2022-12-08T15:50:42.708Z,9.50
2022-12-08T15:52:45.885Z,11.75
2022-12-08T15:54:50.211Z,12.15
2022-12-08T15:57:18.698Z,12.95
2022-12-08T15:59:20.780Z,13.82
2022-12-08T16:01:24.100Z,13.40
2022-12-08T16:06:20.527Z,9.63
2022-12-08T16:08:44.561Z,12.35
2022-12-08T16:11:24.188Z,13.27
2022-12-08T16:15:53.637Z,10.75
2022-12-08T16:18:02.634Z,10.00
2022-12-08T16:20:08.564Z,11.32
2022-12-08T16:22:51.718Z,11.13
2022-12-08T16:24:41.488Z,10.75
2022-12-08T16:27:58.110Z,15.73
2022-12-08T16:29:09.669Z,11.38
2022-12-08T16:31:17.744Z,11.85
2022-12-08T16:33:24.869Z,10.93
2022-12-08T16:35:29.232Z,11.90
2022-12-08T16:37:32.438Z,11.63
2022-12-08T16:39:38.726Z,11.50
2022-12-08T16:42:01.907Z,12.25
2022-12-08T16:44:07.377Z,12.10
2022-12-08T16:46:18.870Z,15.57
2022-12-08T16:48:22.763Z,16.88
2022-12-08T16:50:27.378Z,15.57
2022-12-08T16:52:30.476Z,14.93
2022-12-08T16:54:33.503Z,13.50
2022-12-08T16:56:36.629Z,13.82
2022-12-08T16:58:39.902Z,15.18
2022-12-08T17:00:43.408Z,10.73
2022-12-08T17:02:49.656Z,13.10
2022-12-08T17:04:54.030Z,12.15
2022-12-08T17:06:58.222Z,13.95
2022-12-08T17:09:01.992Z,14.82
2022-12-08T17:11:10.254Z,11.63
2022-12-08T17:13:16.899Z,13.15
2022-12-08T17:15:23.815Z,14.07
2022-12-08T17:17:27.045Z,15.23
2022-12-08T17:19:31.464Z,11.23
2022-12-08T17:21:35.611Z,12.35
2022-12-08T17:23:40.909Z,12.77
2022-12-08T17:25:45.708Z,13.55
2022-12-08T17:27:48.805Z,13.73
2022-12-08T17:29:52.024Z,12.20
2022-12-08T17:31:55.120Z,12.63
2022-12-08T17:33:59.385Z,11.20
2022-12-08T17:36:04.126Z,12.55
2022-12-08T17:38:07.144Z,13.95
2022-12-08T17:40:10.938Z,12.75
2022-12-08T17:42:14.001Z,11.70
2022-12-08T17:44:18.365Z,14.68
2022-12-08T17:46:22.551Z,13.45
2022-12-08T17:48:25.738Z,14.02
2022-12-08T17:50:28.774Z,13.13
2022-12-08T17:52:33.193Z,16.05
2022-12-08T17:54:36.453Z,14.15
2022-12-08T17:56:39.599Z,12.32
2022-12-08T17:58:42.757Z,12.73
2022-12-08T18:00:45.944Z,14.25
2022-12-08T18:02:49.012Z,14.93
2022-12-08T18:04:52.068Z,13.52
2022-12-08T18:06:55.322Z,14.57
2022-12-08T18:09:00.839Z,13.95
2022-12-08T18:11:04.655Z,14.70
2022-12-08T18:13:07.829Z,13.30
2022-12-08T18:15:13.547Z,18.58
2022-12-08T18:17:16.989Z,12.55
2022-12-08T18:19:20.331Z,18.75
2022-12-08T18:21:23.962Z,20.17
2022-12-08T18:23:27.163Z,14.23
2022-12-08T18:25:31.692Z,13.55
2022-12-08T18:27:39.915Z,12.07
2022-12-08T18:29:45.938Z,12.48
2022-12-08T18:31:50.157Z,15.38
2022-12-08T18:33:53.505Z,12.25
2022-12-08T18:35:56.579Z,14.93
2022-12-08T18:38:00.192Z,15.00
2022-12-08T18:40:03.619Z,13.95
2022-12-08T18:42:22.543Z,16.58
2022-12-08T18:44:26.249Z,18.73
2022-12-08T18:46:29.428Z,20.77
2022-12-08T18:48:32.516Z,21.35
2022-12-08T18:50:35.765Z,18.13
2022-12-08T18:52:38.883Z,20.40
2022-12-08T18:55:05.053Z,19.38
2022-12-08T18:57:05.279Z,26.27
2022-12-08T18:59:12.266Z,19.80
2022-12-08T19:01:15.651Z,17.05
2022-12-08T19:03:18.744Z,18.45
2022-12-08T19:05:21.777Z,18.67
2022-12-08T19:07:24.857Z,19.33
2022-12-08T19:09:28.991Z,20.25
2022-12-08T19:11:32.174Z,14.80
2022-12-08T19:13:35.264Z,18.38
2022-12-08T19:15:39.831Z,17.95
2022-12-08T19:17:42.904Z,18.25
2022-12-08T19:19:45.975Z,23.20
2022-12-08T19:21:49.154Z,26.38
2022-12-08T19:23:52.760Z,17.08
2022-12-08T19:25:55.847Z,24.23
2022-12-08T19:28:01.087Z,23.15
2022-12-08T19:30:05.608Z,21.27
2022-12-08T19:32:10.443Z,23.85
2022-12-08T19:34:14.698Z,22.20
2022-12-08T19:36:19.904Z,20.35
2022-12-08T19:38:23.072Z,18.67
2022-12-08T19:40:46.788Z,19.30
2022-12-08T19:43:07.474Z,23.92
2022-12-08T19:45:12.849Z,22.85
2022-12-08T19:47:17.338Z,32.50
2022-12-08T19:49:20.454Z,22.55
2022-12-08T19:51:23.550Z,19.13
2022-12-08T19:53:26.662Z,23.70
2022-12-08T19:55:30.295Z,28.25
2022-12-08T19:57:33.805Z,24.83
2022-12-08T19:59:36.944Z,23.15
2022-12-08T20:01:40.394Z,23.02
2022-12-08T20:03:45.274Z,25.73
2022-12-08T20:05:51.055Z,24.00
2022-12-08T20:07:56.105Z,23.67
2022-12-08T20:09:59.373Z,24.35
2022-12-08T20:12:02.737Z,26.50
2022-12-08T20:14:06.244Z,22.38
2022-12-08T20:16:09.950Z,18.85
2022-12-08T20:18:14.978Z,22.50
2022-12-08T20:20:19.905Z,24.38
2022-12-08T20:22:23.140Z,32.03
2022-12-08T20:24:26.311Z,34.17
2022-12-08T20:26:29.472Z,30.02
2022-12-08T20:28:32.702Z,23.63
2022-12-08T20:30:36.154Z,21.95
2022-12-08T20:32:39.279Z,20.75
2022-12-08T20:34:42.439Z,23.48
2022-12-08T20:36:47.248Z,17.67
2022-12-08T20:38:51.669Z,19.48
2022-12-08T20:40:54.933Z,28.30
2022-12-08T20:42:58.483Z,34.33
2022-12-08T20:45:01.724Z,36.03
2022-12-08T20:47:05.036Z,32.35
2022-12-08T20:49:08.781Z,26.73
2022-12-08T20:51:14.257Z,27.83
2022-12-08T20:53:18.974Z,35.70
2022-12-08T20:55:22.514Z,28.60
2022-12-08T20:57:26.041Z,29.13
2022-12-08T20:59:29.283Z,26.00
2022-12-08T21:01:32.528Z,21.85
2022-12-08T21:03:35.989Z,16.48
2022-12-08T21:05:39.882Z,16.15
2022-12-08T21:07:43.306Z,17.55
2022-12-08T21:09:48.388Z,17.63
2022-12-08T21:11:51.828Z,20.25
2022-12-08T21:13:55.015Z,20.25
2022-12-08T21:15:58.883Z,18.08
2022-12-08T21:18:02.476Z,21.23
2022-12-08T21:20:08.246Z,20.35
2022-12-08T21:22:12.553Z,18.73
2022-12-08T21:24:16.392Z,20.02
2022-12-08T21:26:25.826Z,18.15
2022-12-08T21:28:29.525Z,16.90
2022-12-08T21:30:32.736Z,29.45
2022-12-08T21:32:36.264Z,34.25
2022-12-08T21:34:39.510Z,20.10
2022-12-08T21:36:42.758Z,17.42
2022-12-08T21:38:46.526Z,12.70
2022-12-08T21:40:49.761Z,12.38
2022-12-08T21:42:53.403Z,9.60
2022-12-08T21:44:56.653Z,12.77
2022-12-08T21:46:59.815Z,11.27
2022-12-08T21:49:03.143Z,10.98
2022-12-08T21:51:06.613Z,16.35
2022-12-08T21:53:10.844Z,21.65
2022-12-08T21:55:14.729Z,19.42
2022-12-08T21:57:17.992Z,13.80
2022-12-08T21:59:22.724Z,16.50
2022-12-08T22:01:26.136Z,15.63
2022-12-08T22:03:30.088Z,11.27
2022-12-08T22:05:33.606Z,10.07
2022-12-08T22:07:39.038Z,9.50
2022-12-08T22:09:42.774Z,12.05
2022-12-08T22:11:46.089Z,17.48
2022-12-08T22:13:49.567Z,12.80
2022-12-08T22:15:58.379Z,11.27
2022-12-08T22:18:01.686Z,16.70
2022-12-08T22:20:06.599Z,22.25
2022-12-08T22:22:10.232Z,19.35
2022-12-08T22:24:13.359Z,21.10
2022-12-08T22:26:16.644Z,16.50
2022-12-08T22:28:19.720Z,18.00
2022-12-08T22:30:22.766Z,21.80
2022-12-08T22:32:27.301Z,18.00
2022-12-08T22:34:30.509Z,16.33
2022-12-08T22:36:33.933Z,30.30
2022-12-08T22:38:36.991Z,24.80
2022-12-08T22:40:41.202Z,21.17
2022-12-08T22:42:44.213Z,20.98
2022-12-08T22:44:47.253Z,20.67
2022-12-08T22:46:50.255Z,19.65
2022-12-08T22:48:55.714Z,20.45
2022-12-08T22:50:59.689Z,18.00
2022-12-08T22:53:02.957Z,17.10
2022-12-08T22:55:06.977Z,19.75
2022-12-08T22:57:10.301Z,16.17
2022-12-08T22:59:13.487Z,13.80
2022-12-08T23:01:25.022Z,17.20
2022-12-08T23:03:28.296Z,16.27
2022-12-08T23:05:35.183Z,17.90
2022-12-08T23:07:38.566Z,16.35
2022-12-08T23:09:41.751Z,17.75
2022-12-08T23:11:44.980Z,16.38
2022-12-08T23:13:48.143Z,18.00
2022-12-08T23:15:51.359Z,17.90
2022-12-08T23:17:54.658Z,14.98
2022-12-08T23:19:57.727Z,18.83
2022-12-08T23:22:02.095Z,20.33
2022-12-08T23:24:05.948Z,20.23
2022-12-08T23:26:16.987Z,18.35
2022-12-08T23:28:20.193Z,16.27
2022-12-08T23:30:23.202Z,18.30
2022-12-08T23:32:26.758Z,17.33
2022-12-08T23:34:29.838Z,16.33
2022-12-08T23:36:33.005Z,16.02
2022-12-08T23:38:37.457Z,15.85
2022-12-08T23:40:40.570Z,16.67
2022-12-08T23:42:43.851Z,15.32
2022-12-08T23:44:46.982Z,16.00
2022-12-08T23:46:50.364Z,17.00
2022-12-08T23:48:53.777Z,13.23
2022-12-08T23:50:57.597Z,14.80
2022-12-08T23:53:00.663Z,15.90
2022-12-08T23:55:05.643Z,13.73
2022-12-08T23:57:09.045Z,12.80
2022-12-08T23:59:12.075Z,12.93
